sensor_id;sensor_type;location;lat;lon;timestamp;temperature;humidity
72952;HTU21D;61102;51.956;5.878;2022-09-17T00:01:01;16.11;58.99
72952;HTU21D;61102;51.956;5.878;2022-09-17T00:03:27;16.00;59.32
72952;HTU21D;61102;51.956;5.878;2022-09-17T00:06:05;15.90;59.78
72952;HTU21D;61102;51.956;5.878;2022-09-17T00:08:34;15.87;60.14
72952;HTU21D;61102;51.956;5.878;2022-09-17T00:11:28;15.83;60.89
72952;HTU21D;61102;51.956;5.878;2022-09-17T00:13:56;15.78;60.42
72952;HTU21D;61102;51.956;5.878;2022-09-17T00:16:26;15.75;60.72
72952;HTU21D;61102;51.956;5.878;2022-09-17T00:18:52;15.73;61.03
72952;HTU21D;61102;51.956;5.878;2022-09-17T00:21:19;15.68;61.29
72952;HTU21D;61102;51.956;5.878;2022-09-17T00:23:45;15.68;61.61
72952;HTU21D;61102;51.956;5.878;2022-09-17T00:26:11;15.69;61.45
72952;HTU21D;61102;51.956;5.878;2022-09-17T00:28:38;15.66;61.15
72952;HTU21D;61102;51.956;5.878;2022-09-17T00:31:08;15.67;61.16
72952;HTU21D;61102;51.956;5.878;2022-09-17T00:33:34;15.68;60.88
72952;HTU21D;61102;51.956;5.878;2022-09-17T00:36:02;15.68;60.92
72952;HTU21D;61102;51.956;5.878;2022-09-17T00:38:29;15.65;61.15
72952;HTU21D;61102;51.956;5.878;2022-09-17T00:40:58;15.59;61.66
72952;HTU21D;61102;51.956;5.878;2022-09-17T00:46:21;15.49;61.67
72952;HTU21D;61102;51.956;5.878;2022-09-17T00:48:50;15.47;61.90
72952;HTU21D;61102;51.956;5.878;2022-09-17T00:51:22;15.48;62.50
72952;HTU21D;61102;51.956;5.878;2022-09-17T00:53:49;15.54;62.50
72952;HTU21D;61102;51.956;5.878;2022-09-17T00:56:23;15.58;62.63
72952;HTU21D;61102;51.956;5.878;2022-09-17T00:58:51;15.67;62.89
72952;HTU21D;61102;51.956;5.878;2022-09-17T01:01:17;15.73;62.64
72952;HTU21D;61102;51.956;5.878;2022-09-17T01:03:43;15.80;62.24
72952;HTU21D;61102;51.956;5.878;2022-09-17T01:06:15;15.78;62.09
72952;HTU21D;61102;51.956;5.878;2022-09-17T01:17:22;15.46;62.78
72952;HTU21D;61102;51.956;5.878;2022-09-17T01:22:53;15.41;62.85
72952;HTU21D;61102;51.956;5.878;2022-09-17T01:42:56;15.22;64.58
72952;HTU21D;61102;51.956;5.878;2022-09-17T01:48:10;15.15;64.73
72952;HTU21D;61102;51.956;5.878;2022-09-17T01:53:15;15.10;64.88
72952;HTU21D;61102;51.956;5.878;2022-09-17T01:55:44;15.12;65.08
72952;HTU21D;61102;51.956;5.878;2022-09-17T01:58:17;15.14;64.77
72952;HTU21D;61102;51.956;5.878;2022-09-17T02:00:49;15.09;64.56
72952;HTU21D;61102;51.956;5.878;2022-09-17T02:03:22;15.03;64.72
72952;HTU21D;61102;51.956;5.878;2022-09-17T02:06:01;14.98;64.72
72952;HTU21D;61102;51.956;5.878;2022-09-17T02:08:35;14.96;64.96
72952;HTU21D;61102;51.956;5.878;2022-09-17T02:11:06;14.95;64.85
72952;HTU21D;61102;51.956;5.878;2022-09-17T02:13:41;14.98;64.85
72952;HTU21D;61102;51.956;5.878;2022-09-17T02:16:21;15.01;64.84
72952;HTU21D;61102;51.956;5.878;2022-09-17T02:19:08;15.02;64.68
72952;HTU21D;61102;51.956;5.878;2022-09-17T02:26:31;14.94;64.92
72952;HTU21D;61102;51.956;5.878;2022-09-17T02:29:06;14.95;64.71
72952;HTU21D;61102;51.956;5.878;2022-09-17T02:31:34;14.92;64.73
72952;HTU21D;61102;51.956;5.878;2022-09-17T02:34:01;14.87;64.69
72952;HTU21D;61102;51.956;5.878;2022-09-17T02:36:28;14.83;64.68
72952;HTU21D;61102;51.956;5.878;2022-09-17T02:38:58;14.80;64.59
72952;HTU21D;61102;51.956;5.878;2022-09-17T02:44:52;14.74;64.66
72952;HTU21D;61102;51.956;5.878;2022-09-17T02:48:02;14.70;64.46
72952;HTU21D;61102;51.956;5.878;2022-09-17T03:04:08;14.49;64.62
72952;HTU21D;61102;51.956;5.878;2022-09-17T03:06:34;14.48;64.67
72952;HTU21D;61102;51.956;5.878;2022-09-17T03:09:00;14.45;64.50
72952;HTU21D;61102;51.956;5.878;2022-09-17T03:11:26;14.42;64.49
72952;HTU21D;61102;51.956;5.878;2022-09-17T03:13:52;14.38;64.50
72952;HTU21D;61102;51.956;5.878;2022-09-17T03:16:18;14.36;64.37
72952;HTU21D;61102;51.956;5.878;2022-09-17T03:18:44;14.33;64.43
72952;HTU21D;61102;51.956;5.878;2022-09-17T03:21:10;14.29;64.50
72952;HTU21D;61102;51.956;5.878;2022-09-17T03:23:37;14.25;64.47
72952;HTU21D;61102;51.956;5.878;2022-09-17T03:26:04;14.22;64.37
72952;HTU21D;61102;51.956;5.878;2022-09-17T03:28:30;14.18;64.43
72952;HTU21D;61102;51.956;5.878;2022-09-17T03:30:56;14.13;64.22
72952;HTU21D;61102;51.956;5.878;2022-09-17T03:33:22;14.08;64.40
72952;HTU21D;61102;51.956;5.878;2022-09-17T03:35:48;14.04;64.51
72952;HTU21D;61102;51.956;5.878;2022-09-17T03:38:15;14.01;64.47
72952;HTU21D;61102;51.956;5.878;2022-09-17T03:40:41;13.99;64.53
72952;HTU21D;61102;51.956;5.878;2022-09-17T03:43:07;13.98;64.52
72952;HTU21D;61102;51.956;5.878;2022-09-17T03:45:33;13.97;64.66
72952;HTU21D;61102;51.956;5.878;2022-09-17T03:47:59;13.97;64.40
72952;HTU21D;61102;51.956;5.878;2022-09-17T03:50:25;13.97;64.55
72952;HTU21D;61102;51.956;5.878;2022-09-17T03:52:51;13.98;64.56
72952;HTU21D;61102;51.956;5.878;2022-09-17T03:55:17;13.98;64.49
72952;HTU21D;61102;51.956;5.878;2022-09-17T03:57:43;13.96;64.41
72952;HTU21D;61102;51.956;5.878;2022-09-17T04:00:10;13.94;64.29
72952;HTU21D;61102;51.956;5.878;2022-09-17T04:02:40;13.92;64.36
72952;HTU21D;61102;51.956;5.878;2022-09-17T04:05:06;13.90;64.16
72952;HTU21D;61102;51.956;5.878;2022-09-17T04:07:33;13.88;64.08
72952;HTU21D;61102;51.956;5.878;2022-09-17T04:09:59;13.83;64.27
72952;HTU21D;61102;51.956;5.878;2022-09-17T04:12:25;13.82;64.29
72952;HTU21D;61102;51.956;5.878;2022-09-17T04:14:51;13.82;64.53
72952;HTU21D;61102;51.956;5.878;2022-09-17T04:17:17;13.81;64.37
72952;HTU21D;61102;51.956;5.878;2022-09-17T04:19:43;13.82;64.26
72952;HTU21D;61102;51.956;5.878;2022-09-17T04:22:09;13.81;64.25
72952;HTU21D;61102;51.956;5.878;2022-09-17T04:24:35;13.80;64.25
72952;HTU21D;61102;51.956;5.878;2022-09-17T04:27:02;13.78;64.21
72952;HTU21D;61102;51.956;5.878;2022-09-17T04:29:27;13.76;64.18
72952;HTU21D;61102;51.956;5.878;2022-09-17T04:31:53;13.75;64.12
72952;HTU21D;61102;51.956;5.878;2022-09-17T04:34:21;13.71;64.24
72952;HTU21D;61102;51.956;5.878;2022-09-17T04:36:47;13.70;64.14
72952;HTU21D;61102;51.956;5.878;2022-09-17T04:39:13;13.68;64.08
72952;HTU21D;61102;51.956;5.878;2022-09-17T04:41:39;13.67;63.94
72952;HTU21D;61102;51.956;5.878;2022-09-17T04:44:05;13.66;64.05
72952;HTU21D;61102;51.956;5.878;2022-09-17T04:46:31;13.63;63.98
72952;HTU21D;61102;51.956;5.878;2022-09-17T04:48:57;13.62;64.00
72952;HTU21D;61102;51.956;5.878;2022-09-17T04:51:26;13.62;64.01
72952;HTU21D;61102;51.956;5.878;2022-09-17T04:53:52;13.60;63.79
72952;HTU21D;61102;51.956;5.878;2022-09-17T04:56:18;13.59;64.01
72952;HTU21D;61102;51.956;5.878;2022-09-17T04:58:45;13.60;63.82
72952;HTU21D;61102;51.956;5.878;2022-09-17T05:01:11;13.61;63.91
72952;HTU21D;61102;51.956;5.878;2022-09-17T05:03:38;13.62;63.95
72952;HTU21D;61102;51.956;5.878;2022-09-17T05:06:07;13.63;63.89
72952;HTU21D;61102;51.956;5.878;2022-09-17T05:08:33;13.63;63.90
72952;HTU21D;61102;51.956;5.878;2022-09-17T05:10:59;13.63;63.93
72952;HTU21D;61102;51.956;5.878;2022-09-17T05:13:25;13.64;63.75
72952;HTU21D;61102;51.956;5.878;2022-09-17T05:15:53;13.65;63.69
72952;HTU21D;61102;51.956;5.878;2022-09-17T05:18:21;13.64;63.79
72952;HTU21D;61102;51.956;5.878;2022-09-17T05:20:47;13.64;63.81
72952;HTU21D;61102;51.956;5.878;2022-09-17T05:23:13;13.64;63.89
72952;HTU21D;61102;51.956;5.878;2022-09-17T05:25:39;13.64;63.83
72952;HTU21D;61102;51.956;5.878;2022-09-17T05:28:05;13.63;63.76
72952;HTU21D;61102;51.956;5.878;2022-09-17T05:30:31;13.63;63.82
72952;HTU21D;61102;51.956;5.878;2022-09-17T05:33:03;13.63;63.70
72952;HTU21D;61102;51.956;5.878;2022-09-17T05:35:30;13.62;63.75
72952;HTU21D;61102;51.956;5.878;2022-09-17T05:38:00;13.62;63.79
72952;HTU21D;61102;51.956;5.878;2022-09-17T05:40:27;13.62;63.71
72952;HTU21D;61102;51.956;5.878;2022-09-17T05:43:01;13.62;63.89
72952;HTU21D;61102;51.956;5.878;2022-09-17T05:45:28;13.62;63.91
72952;HTU21D;61102;51.956;5.878;2022-09-17T05:47:59;13.62;63.85
72952;HTU21D;61102;51.956;5.878;2022-09-17T05:50:27;13.64;63.64
72952;HTU21D;61102;51.956;5.878;2022-09-17T05:52:56;13.65;63.53
72952;HTU21D;61102;51.956;5.878;2022-09-17T05:55:27;13.69;63.43
72952;HTU21D;61102;51.956;5.878;2022-09-17T05:57:53;13.76;63.28
72952;HTU21D;61102;51.956;5.878;2022-09-17T06:00:19;13.81;63.39
72952;HTU21D;61102;51.956;5.878;2022-09-17T06:02:45;13.79;63.27
72952;HTU21D;61102;51.956;5.878;2022-09-17T06:05:11;13.77;63.24
72952;HTU21D;61102;51.956;5.878;2022-09-17T06:07:38;13.78;63.37
72952;HTU21D;61102;51.956;5.878;2022-09-17T06:10:05;13.80;63.47
72952;HTU21D;61102;51.956;5.878;2022-09-17T06:12:33;13.81;63.21
72952;HTU21D;61102;51.956;5.878;2022-09-17T06:15:01;13.81;63.19
72952;HTU21D;61102;51.956;5.878;2022-09-17T06:17:27;13.82;63.27
72952;HTU21D;61102;51.956;5.878;2022-09-17T06:19:53;13.84;63.42
72952;HTU21D;61102;51.956;5.878;2022-09-17T06:22:19;13.90;63.36
72952;HTU21D;61102;51.956;5.878;2022-09-17T06:24:45;13.95;63.45
72952;HTU21D;61102;51.956;5.878;2022-09-17T06:27:11;14.05;63.24
72952;HTU21D;61102;51.956;5.878;2022-09-17T06:29:37;14.15;63.19
72952;HTU21D;61102;51.956;5.878;2022-09-17T06:32:03;14.24;62.99
72952;HTU21D;61102;51.956;5.878;2022-09-17T06:34:29;14.33;62.92
72952;HTU21D;61102;51.956;5.878;2022-09-17T06:36:55;14.41;62.47
72952;HTU21D;61102;51.956;5.878;2022-09-17T06:39:21;14.50;62.31
72952;HTU21D;61102;51.956;5.878;2022-09-17T06:41:47;14.57;62.19
72952;HTU21D;61102;51.956;5.878;2022-09-17T06:44:14;14.62;61.91
72952;HTU21D;61102;51.956;5.878;2022-09-17T06:46:41;14.69;61.89
72952;HTU21D;61102;51.956;5.878;2022-09-17T06:49:08;14.75;61.73
72952;HTU21D;61102;51.956;5.878;2022-09-17T06:51:34;14.85;61.43
72952;HTU21D;61102;51.956;5.878;2022-09-17T06:54:00;14.95;61.42
72952;HTU21D;61102;51.956;5.878;2022-09-17T06:56:26;15.01;61.06
72952;HTU21D;61102;51.956;5.878;2022-09-17T06:58:53;15.09;60.99
72952;HTU21D;61102;51.956;5.878;2022-09-17T07:01:19;15.21;60.88
72952;HTU21D;61102;51.956;5.878;2022-09-17T07:03:45;15.29;60.73
72952;HTU21D;61102;51.956;5.878;2022-09-17T07:06:11;15.34;60.28
72952;HTU21D;61102;51.956;5.878;2022-09-17T07:08:37;15.43;60.33
72952;HTU21D;61102;51.956;5.878;2022-09-17T07:11:04;15.53;60.31
72952;HTU21D;61102;51.956;5.878;2022-09-17T07:13:30;15.62;60.06
72952;HTU21D;61102;51.956;5.878;2022-09-17T07:15:58;15.71;59.83
72952;HTU21D;61102;51.956;5.878;2022-09-17T07:18:25;15.83;59.81
72952;HTU21D;61102;51.956;5.878;2022-09-17T07:21:09;15.93;59.40
72952;HTU21D;61102;51.956;5.878;2022-09-17T07:23:36;16.03;59.05
72952;HTU21D;61102;51.956;5.878;2022-09-17T07:26:08;16.08;58.86
72952;HTU21D;61102;51.956;5.878;2022-09-17T07:28:38;16.19;58.99
72952;HTU21D;61102;51.956;5.878;2022-09-17T07:31:05;16.34;58.85
72952;HTU21D;61102;51.956;5.878;2022-09-17T07:33:32;16.46;58.17
72952;HTU21D;61102;51.956;5.878;2022-09-17T07:36:00;16.57;58.08
72952;HTU21D;61102;51.956;5.878;2022-09-17T07:38:28;16.67;57.92
72952;HTU21D;61102;51.956;5.878;2022-09-17T07:41:04;16.78;57.78
72952;HTU21D;61102;51.956;5.878;2022-09-17T07:43:32;16.90;57.19
72952;HTU21D;61102;51.956;5.878;2022-09-17T07:46:00;17.01;57.11
72952;HTU21D;61102;51.956;5.878;2022-09-17T07:48:27;17.13;56.93
72952;HTU21D;61102;51.956;5.878;2022-09-17T07:50:53;17.26;56.43
72952;HTU21D;61102;51.956;5.878;2022-09-17T07:53:20;17.38;56.16
72952;HTU21D;61102;51.956;5.878;2022-09-17T07:55:55;17.51;55.78
72952;HTU21D;61102;51.956;5.878;2022-09-17T07:58:30;17.55;55.56
72952;HTU21D;61102;51.956;5.878;2022-09-17T08:01:06;17.72;55.56
72952;HTU21D;61102;51.956;5.878;2022-09-17T08:03:34;17.84;54.94
72952;HTU21D;61102;51.956;5.878;2022-09-17T08:06:05;19.29;50.23
72952;HTU21D;61102;51.956;5.878;2022-09-17T08:08:32;19.57;49.63
72952;HTU21D;61102;51.956;5.878;2022-09-17T08:11:03;19.59;49.52
72952;HTU21D;61102;51.956;5.878;2022-09-17T08:13:30;19.55;49.31
72952;HTU21D;61102;51.956;5.878;2022-09-17T09:58:34;20.07;47.25
72952;HTU21D;61102;51.956;5.878;2022-09-17T10:01:13;20.42;45.12
72952;HTU21D;61102;51.956;5.878;2022-09-17T10:03:42;20.45;44.98
72952;HTU21D;61102;51.956;5.878;2022-09-17T10:06:15;20.54;45.27
72952;HTU21D;61102;51.956;5.878;2022-09-17T10:11:29;20.32;46.47
72952;HTU21D;61102;51.956;5.878;2022-09-17T10:14:24;19.55;47.89
72952;HTU21D;61102;51.956;5.878;2022-09-17T10:17:10;18.89;49.99
72952;HTU21D;61102;51.956;5.878;2022-09-17T10:19:38;18.49;51.39
72952;HTU21D;61102;51.956;5.878;2022-09-17T10:22:28;18.13;52.75
72952;HTU21D;61102;51.956;5.878;2022-09-17T10:24:59;17.84;54.26
72952;HTU21D;61102;51.956;5.878;2022-09-17T10:27:27;17.68;55.38
72952;HTU21D;61102;51.956;5.878;2022-09-17T10:30:02;17.60;55.79
72952;HTU21D;61102;51.956;5.878;2022-09-17T10:32:29;17.69;56.48
72952;HTU21D;61102;51.956;5.878;2022-09-17T10:35:04;17.76;56.69
72952;HTU21D;61102;51.956;5.878;2022-09-17T10:42:49;17.38;56.67
72952;HTU21D;61102;51.956;5.878;2022-09-17T10:45:26;17.29;57.16
72952;HTU21D;61102;51.956;5.878;2022-09-17T10:47:55;16.87;55.40
72952;HTU21D;61102;51.956;5.878;2022-09-17T10:50:29;16.46;56.28
72952;HTU21D;61102;51.956;5.878;2022-09-17T10:53:02;16.10;57.18
72952;HTU21D;61102;51.956;5.878;2022-09-17T10:55:48;15.97;58.29
72952;HTU21D;61102;51.956;5.878;2022-09-17T11:07:13;16.89;59.77
72952;HTU21D;61102;51.956;5.878;2022-09-17T11:10:04;17.16;58.91
72952;HTU21D;61102;51.956;5.878;2022-09-17T11:20:40;17.24;57.35
72952;HTU21D;61102;51.956;5.878;2022-09-17T11:23:38;17.54;57.74
72952;HTU21D;61102;51.956;5.878;2022-09-17T11:26:31;17.89;57.61
72952;HTU21D;61102;51.956;5.878;2022-09-17T11:35:09;18.17;54.59
72952;HTU21D;61102;51.956;5.878;2022-09-17T11:40:21;18.29;54.75
72952;HTU21D;61102;51.956;5.878;2022-09-17T11:43:01;18.27;53.24
72952;HTU21D;61102;51.956;5.878;2022-09-17T11:45:36;18.46;54.43
72952;HTU21D;61102;51.956;5.878;2022-09-17T11:48:13;18.65;54.12
72952;HTU21D;61102;51.956;5.878;2022-09-17T11:50:46;18.67;50.96
72952;HTU21D;61102;51.956;5.878;2022-09-17T11:53:36;18.74;52.92
72952;HTU21D;61102;51.956;5.878;2022-09-17T11:56:51;18.84;51.35
72952;HTU21D;61102;51.956;5.878;2022-09-17T11:59:19;19.10;52.22
72952;HTU21D;61102;51.956;5.878;2022-09-17T12:01:51;19.35;53.11
72952;HTU21D;61102;51.956;5.878;2022-09-17T12:04:53;19.80;53.38
72952;HTU21D;61102;51.956;5.878;2022-09-17T12:10:03;20.04;49.52
72952;HTU21D;61102;51.956;5.878;2022-09-17T12:12:33;20.46;48.08
72952;HTU21D;61102;51.956;5.878;2022-09-17T12:15:13;19.94;49.71
72952;HTU21D;61102;51.956;5.878;2022-09-17T12:20:35;19.71;47.83
72952;HTU21D;61102;51.956;5.878;2022-09-17T12:23:11;19.09;46.89
72952;HTU21D;61102;51.956;5.878;2022-09-17T12:25:50;18.28;50.45
72952;HTU21D;61102;51.956;5.878;2022-09-17T12:28:26;17.79;51.33
72952;HTU21D;61102;51.956;5.878;2022-09-17T12:31:04;17.55;51.22
72952;HTU21D;61102;51.956;5.878;2022-09-17T12:33:54;17.37;51.79
72952;HTU21D;61102;51.956;5.878;2022-09-17T12:50:29;18.04;48.81
72952;HTU21D;61102;51.956;5.878;2022-09-17T12:53:14;17.77;51.04
72952;HTU21D;61102;51.956;5.878;2022-09-17T12:56:04;17.75;51.30
72952;HTU21D;61102;51.956;5.878;2022-09-17T13:01:13;18.17;50.18
72952;HTU21D;61102;51.956;5.878;2022-09-17T13:03:48;18.77;49.53
72952;HTU21D;61102;51.956;5.878;2022-09-17T13:12:43;21.51;44.80
72952;HTU21D;61102;51.956;5.878;2022-09-17T13:15:33;22.11;42.27
72952;HTU21D;61102;51.956;5.878;2022-09-17T13:21:15;22.94;40.96
72952;HTU21D;61102;51.956;5.878;2022-09-17T13:23:45;22.71;40.59
72952;HTU21D;61102;51.956;5.878;2022-09-17T13:26:17;22.49;41.43
72952;HTU21D;61102;51.956;5.878;2022-09-17T13:28:51;21.72;41.88
72952;HTU21D;61102;51.956;5.878;2022-09-17T13:31:20;20.83;42.84
72952;HTU21D;61102;51.956;5.878;2022-09-17T13:33:54;20.20;44.92
72952;HTU21D;61102;51.956;5.878;2022-09-17T13:36:44;19.66;44.33
72952;HTU21D;61102;51.956;5.878;2022-09-17T13:44:51;19.39;46.20
72952;HTU21D;61102;51.956;5.878;2022-09-17T13:47:22;19.21;47.54
72952;HTU21D;61102;51.956;5.878;2022-09-17T13:49:53;19.14;47.75
72952;HTU21D;61102;51.956;5.878;2022-09-17T13:52:32;19.08;45.70
72952;HTU21D;61102;51.956;5.878;2022-09-17T13:55:01;19.07;46.89
72952;HTU21D;61102;51.956;5.878;2022-09-17T13:57:28;19.86;46.18
72952;HTU21D;61102;51.956;5.878;2022-09-17T13:59:58;21.23;42.56
72952;HTU21D;61102;51.956;5.878;2022-09-17T14:02:32;22.17;40.99
72952;HTU21D;61102;51.956;5.878;2022-09-17T14:05:34;21.78;41.16
72952;HTU21D;61102;51.956;5.878;2022-09-17T14:08:30;21.14;42.48
72952;HTU21D;61102;51.956;5.878;2022-09-17T14:13:47;20.26;45.45
72952;HTU21D;61102;51.956;5.878;2022-09-17T14:16:31;19.69;46.67
72952;HTU21D;61102;51.956;5.878;2022-09-17T14:19:16;18.95;49.03
72952;HTU21D;61102;51.956;5.878;2022-09-17T14:30:11;17.39;53.31
72952;HTU21D;61102;51.956;5.878;2022-09-17T14:41:21;17.45;53.78
72952;HTU21D;61102;51.956;5.878;2022-09-17T14:43:53;17.55;53.84
72952;HTU21D;61102;51.956;5.878;2022-09-17T14:46:28;17.63;50.91
72952;HTU21D;61102;51.956;5.878;2022-09-17T14:49:18;17.75;51.09
72952;HTU21D;61102;51.956;5.878;2022-09-17T14:51:45;17.79;51.17
72952;HTU21D;61102;51.956;5.878;2022-09-17T14:54:32;17.96;48.83
72952;HTU21D;61102;51.956;5.878;2022-09-17T14:56:59;18.32;45.29
72952;HTU21D;61102;51.956;5.878;2022-09-17T15:02:01;17.79;47.32
72952;HTU21D;61102;51.956;5.878;2022-09-17T15:04:30;17.79;47.25
72952;HTU21D;61102;51.956;5.878;2022-09-17T15:07:08;17.81;45.19
72952;HTU21D;61102;51.956;5.878;2022-09-17T15:09:37;17.80;45.76
72952;HTU21D;61102;51.956;5.878;2022-09-17T15:12:05;17.72;44.90
72952;HTU21D;61102;51.956;5.878;2022-09-17T15:14:36;17.80;45.57
72952;HTU21D;61102;51.956;5.878;2022-09-17T15:17:04;17.90;45.62
72952;HTU21D;61102;51.956;5.878;2022-09-17T15:19:34;17.99;46.28
72952;HTU21D;61102;51.956;5.878;2022-09-17T15:22:15;18.13;46.60
72952;HTU21D;61102;51.956;5.878;2022-09-17T15:25:20;18.26;45.93
72952;HTU21D;61102;51.956;5.878;2022-09-17T15:27:44;18.37;46.23
72952;HTU21D;61102;51.956;5.878;2022-09-17T15:30:18;18.39;46.25
72952;HTU21D;61102;51.956;5.878;2022-09-17T15:32:56;18.44;45.51
72952;HTU21D;61102;51.956;5.878;2022-09-17T15:35:25;18.42;45.35
72952;HTU21D;61102;51.956;5.878;2022-09-17T15:37:56;18.47;45.60
72952;HTU21D;61102;51.956;5.878;2022-09-17T15:40:26;18.92;42.74
72952;HTU21D;61102;51.956;5.878;2022-09-17T15:45:43;18.08;48.50
72952;HTU21D;61102;51.956;5.878;2022-09-17T15:51:01;17.16;51.70
72952;HTU21D;61102;51.956;5.878;2022-09-17T15:53:32;16.79;52.54
72952;HTU21D;61102;51.956;5.878;2022-09-17T15:58:35;16.39;53.91
72952;HTU21D;61102;51.956;5.878;2022-09-17T16:11:18;16.06;55.07
72952;HTU21D;61102;51.956;5.878;2022-09-17T16:13:46;16.11;55.21
72952;HTU21D;61102;51.956;5.878;2022-09-17T16:16:35;16.13;55.37
72952;HTU21D;61102;51.956;5.878;2022-09-17T16:19:02;16.24;54.90
72952;HTU21D;61102;51.956;5.878;2022-09-17T16:21:29;16.22;54.97
72952;HTU21D;61102;51.956;5.878;2022-09-17T16:23:56;16.20;55.23
72952;HTU21D;61102;51.956;5.878;2022-09-17T16:26:28;16.30;55.37
72952;HTU21D;61102;51.956;5.878;2022-09-17T16:29:00;16.32;55.09
72952;HTU21D;61102;51.956;5.878;2022-09-17T16:31:28;16.36;54.91
72952;HTU21D;61102;51.956;5.878;2022-09-17T16:33:55;16.39;54.83
72952;HTU21D;61102;51.956;5.878;2022-09-17T16:36:22;16.44;54.49
72952;HTU21D;61102;51.956;5.878;2022-09-17T16:38:49;16.45;54.67
72952;HTU21D;61102;51.956;5.878;2022-09-17T16:41:15;16.50;54.43
72952;HTU21D;61102;51.956;5.878;2022-09-17T16:43:42;16.51;54.34
72952;HTU21D;61102;51.956;5.878;2022-09-17T16:46:10;16.52;54.30
72952;HTU21D;61102;51.956;5.878;2022-09-17T16:48:37;16.57;54.08
72952;HTU21D;61102;51.956;5.878;2022-09-17T16:51:07;16.61;54.49
72952;HTU21D;61102;51.956;5.878;2022-09-17T16:53:34;16.71;54.25
72952;HTU21D;61102;51.956;5.878;2022-09-17T16:56:00;16.78;54.04
72952;HTU21D;61102;51.956;5.878;2022-09-17T16:58:32;16.85;53.54
72952;HTU21D;61102;51.956;5.878;2022-09-17T17:01:04;16.90;52.62
72952;HTU21D;61102;51.956;5.878;2022-09-17T17:03:30;16.92;53.07
72952;HTU21D;61102;51.956;5.878;2022-09-17T17:05:59;16.99;53.36
72952;HTU21D;61102;51.956;5.878;2022-09-17T17:08:25;17.06;52.98
72952;HTU21D;61102;51.956;5.878;2022-09-17T17:10:51;17.11;52.95
72952;HTU21D;61102;51.956;5.878;2022-09-17T17:13:18;17.17;52.15
72952;HTU21D;61102;51.956;5.878;2022-09-17T17:15:44;17.20;52.82
72952;HTU21D;61102;51.956;5.878;2022-09-17T17:18:10;17.28;52.92
72952;HTU21D;61102;51.956;5.878;2022-09-17T17:20:36;17.32;52.72
72952;HTU21D;61102;51.956;5.878;2022-09-17T17:23:04;17.33;52.91
72952;HTU21D;61102;51.956;5.878;2022-09-17T17:25:30;17.80;51.66
72952;HTU21D;61102;51.956;5.878;2022-09-17T17:27:57;17.37;52.53
72952;HTU21D;61102;51.956;5.878;2022-09-17T17:30:23;17.22;52.88
72952;HTU21D;61102;51.956;5.878;2022-09-17T17:32:51;17.16;53.41
72952;HTU21D;61102;51.956;5.878;2022-09-17T17:35:18;17.16;53.45
72952;HTU21D;61102;51.956;5.878;2022-09-17T17:37:45;17.18;53.71
72952;HTU21D;61102;51.956;5.878;2022-09-17T17:40:12;17.22;53.64
72952;HTU21D;61102;51.956;5.878;2022-09-17T17:42:38;17.24;53.79
72952;HTU21D;61102;51.956;5.878;2022-09-17T17:45:09;17.25;53.18
72952;HTU21D;61102;51.956;5.878;2022-09-17T17:47:35;17.22;52.87
72952;HTU21D;61102;51.956;5.878;2022-09-17T17:50:02;17.08;52.42
72952;HTU21D;61102;51.956;5.878;2022-09-17T17:52:29;16.95;52.76
72952;HTU21D;61102;51.956;5.878;2022-09-17T17:54:56;16.82;53.26
72952;HTU21D;61102;51.956;5.878;2022-09-17T17:57:23;16.75;53.66
72952;HTU21D;61102;51.956;5.878;2022-09-17T17:59:50;16.69;53.69
72952;HTU21D;61102;51.956;5.878;2022-09-17T18:02:16;16.65;53.88
72952;HTU21D;61102;51.956;5.878;2022-09-17T18:04:44;16.59;54.18
72952;HTU21D;61102;51.956;5.878;2022-09-17T18:07:10;16.57;54.28
72952;HTU21D;61102;51.956;5.878;2022-09-17T18:09:37;16.52;54.41
72952;HTU21D;61102;51.956;5.878;2022-09-17T18:12:04;16.54;54.51
72952;HTU21D;61102;51.956;5.878;2022-09-17T18:14:30;16.52;54.71
72952;HTU21D;61102;51.956;5.878;2022-09-17T18:16:57;16.54;54.86
72952;HTU21D;61102;51.956;5.878;2022-09-17T18:19:23;16.54;54.85
72952;HTU21D;61102;51.956;5.878;2022-09-17T18:21:49;16.51;54.81
72952;HTU21D;61102;51.956;5.878;2022-09-17T18:24:18;16.51;55.02
72952;HTU21D;61102;51.956;5.878;2022-09-17T18:26:45;16.50;55.01
72952;HTU21D;61102;51.956;5.878;2022-09-17T18:29:11;16.46;55.13
72952;HTU21D;61102;51.956;5.878;2022-09-17T18:31:37;16.43;55.19
72952;HTU21D;61102;51.956;5.878;2022-09-17T18:34:10;16.35;55.30
72952;HTU21D;61102;51.956;5.878;2022-09-17T18:36:38;16.37;55.26
72952;HTU21D;61102;51.956;5.878;2022-09-17T18:39:08;16.34;55.45
72952;HTU21D;61102;51.956;5.878;2022-09-17T18:41:36;16.36;55.50
72952;HTU21D;61102;51.956;5.878;2022-09-17T18:44:09;16.41;55.35
72952;HTU21D;61102;51.956;5.878;2022-09-17T18:46:36;16.42;55.26
72952;HTU21D;61102;51.956;5.878;2022-09-17T18:49:03;16.40;55.53
72952;HTU21D;61102;51.956;5.878;2022-09-17T18:51:30;16.41;55.67
72952;HTU21D;61102;51.956;5.878;2022-09-17T18:53:57;16.41;55.59
72952;HTU21D;61102;51.956;5.878;2022-09-17T18:56:30;16.40;55.91
72952;HTU21D;61102;51.956;5.878;2022-09-17T18:59:02;16.33;55.92
72952;HTU21D;61102;51.956;5.878;2022-09-17T19:01:30;16.27;56.13
72952;HTU21D;61102;51.956;5.878;2022-09-17T19:03:58;16.21;56.29
72952;HTU21D;61102;51.956;5.878;2022-09-17T19:06:25;16.16;56.43
72952;HTU21D;61102;51.956;5.878;2022-09-17T19:08:52;16.12;56.54
72952;HTU21D;61102;51.956;5.878;2022-09-17T19:11:20;16.08;56.65
72952;HTU21D;61102;51.956;5.878;2022-09-17T19:13:47;16.04;56.77
72952;HTU21D;61102;51.956;5.878;2022-09-17T19:16:15;16.00;56.91
72952;HTU21D;61102;51.956;5.878;2022-09-17T19:18:42;15.98;57.07
72952;HTU21D;61102;51.956;5.878;2022-09-17T19:21:14;15.99;57.35
72952;HTU21D;61102;51.956;5.878;2022-09-17T19:23:43;16.03;57.28
72952;HTU21D;61102;51.956;5.878;2022-09-17T19:26:16;16.05;57.42
72952;HTU21D;61102;51.956;5.878;2022-09-17T19:28:43;16.08;57.39
72952;HTU21D;61102;51.956;5.878;2022-09-17T19:31:12;16.04;57.55
72952;HTU21D;61102;51.956;5.878;2022-09-17T19:33:39;15.99;57.61
72952;HTU21D;61102;51.956;5.878;2022-09-17T19:36:10;15.87;57.87
72952;HTU21D;61102;51.956;5.878;2022-09-17T19:38:37;15.83;57.95
72952;HTU21D;61102;51.956;5.878;2022-09-17T19:41:08;15.73;58.19
72952;HTU21D;61102;51.956;5.878;2022-09-17T19:43:34;15.68;58.20
72952;HTU21D;61102;51.956;5.878;2022-09-17T19:48:31;15.57;58.59
72952;HTU21D;61102;51.956;5.878;2022-09-17T19:50:58;15.53;58.56
72952;HTU21D;61102;51.956;5.878;2022-09-17T19:53:24;15.49;58.66
72952;HTU21D;61102;51.956;5.878;2022-09-17T19:55:51;15.47;58.78
72952;HTU21D;61102;51.956;5.878;2022-09-17T19:58:17;15.42;58.87
72952;HTU21D;61102;51.956;5.878;2022-09-17T20:00:43;15.39;59.00
72952;HTU21D;61102;51.956;5.878;2022-09-17T20:03:10;15.33;59.11
72952;HTU21D;61102;51.956;5.878;2022-09-17T20:05:37;15.30;59.25
72952;HTU21D;61102;51.956;5.878;2022-09-17T20:08:03;15.28;59.15
72952;HTU21D;61102;51.956;5.878;2022-09-17T20:10:33;15.26;59.34